M I D A S
Marine Information and Data Acquisition System
Tripno 2010 of the Zeeleeuw from 2010-10-12 08:21:20 to 2010-10-12 16:04:30
Back to CruiseResearch ActivitiesStationsMapUnderway DataData graphs

EquipmentUnitsComments
TimeDGPSUTC
LatitudeDGPSDM.mWGS84
LongitudeDGPSDM.mWGS84
SpeedMeteo Stationm/sRelative wind speed
DirectionMeteo StationdegRelative wind direction
TemperatureMeteo Stationdeg CelciusAir temperature
PressureMeteo StationPaAtmospheric pressure
HumidityMeteo Station%Relative humidity
Missing or incorrect values are displayed as -999
Metereological data collected by the RV Zeeleeuw from 2010-10-12 07:04:29 to 2010-10-13 10:25:50
Time Latitude Longitude Speed Direction Temperature Pressure Humidity
2010-10-12 07:05 51°13.662 2°55.961 2 21 9.3 101900 49
2010-10-12 07:06 51°13.662 2°55.961 3.1 25 9.3 101900 48
2010-10-12 07:07 51°13.662 2°55.961 4.2 19 9.3 101900 48
2010-10-12 07:08 51°13.661 2°55.961 0.3 22 9.3 101900 49
2010-10-12 07:09 51°13.662 2°55.961 1.1 23 9.3 101910 50
2010-10-12 07:10 51°13.662 2°55.96 2.6 258 -999 -999 -999
2010-10-12 07:11 51°13.662 2°55.961 2.6 25 9.4 101900 52
2010-10-12 07:12 51°13.662 2°55.96 2.7 21 9.4 101910 50
2010-10-12 07:13 51°13.662 2°55.961 2.2 23 9.4 101910 49
2010-10-12 07:14 51°13.662 2°55.961 1.8 21 9.4 101910 48
2010-10-12 07:15 51°13.662 2°55.96 2 22 9.5 101920 52
2010-10-12 07:16 51°13.662 2°55.961 2.4 27 9.5 101910 52
2010-10-12 07:17 51°13.663 2°55.961 2.2 259 9.5 101910 48
2010-10-12 07:18 51°13.663 2°55.961 3.2 20 9.5 101910 49
2010-10-12 07:19 51°13.663 2°55.96 4.1 251 9.6 101920 52
2010-10-12 07:20 51°13.662 2°55.961 1.5 23 9.6 101920 49
2010-10-12 07:21 51°13.662 2°55.96 2.1 20 9.6 101910 50
2010-10-12 07:22 51°13.662 2°55.961 3.1 22 9.6 101920 49
2010-10-12 07:23 51°13.662 2°55.96 4.5 248 9.6 101920 52
2010-10-12 07:24 51°13.662 2°55.96 4 250 9.7 101920 49
2010-10-12 07:25 51°13.662 2°55.959 4.3 21 9.7 101930 50
2010-10-12 07:26 51°13.662 2°55.959 2.5 249 9.7 101920 50
2010-10-12 07:27 51°13.662 2°55.961 0.9 27 9.7 101920 50
2010-10-12 07:28 51°13.661 2°55.96 2.8 21 9.8 101920 50
2010-10-12 07:29 51°13.669 2°55.924 0.1 23 9.8 101930 49
2010-10-12 07:30 51°13.688 2°55.833 1.5 20 9.8 101930 51
2010-10-12 07:31 51°13.696 2°55.768 2.8 22 9.9 101930 50
2010-10-12 07:32 51°13.69 2°55.751 4.2 336 9.9 101910 50
2010-10-12 07:33 51°13.726 2°55.733 5.1 5 9.9 101910 51
2010-10-12 07:34 51°13.81 2°55.65 3.9 350 9.9 101920 48
2010-10-12 07:35 51°13.93 2°55.557 6.9 354 9.9 101910 50
2010-10-12 07:36 51°14.069 2°55.455 7.9 352 10 101910 51
2010-10-12 07:37 51°14.21 2°55.334 9.1 2 10 101910 50
2010-10-12 07:38 51°14.352 2°55.19 8.2 5 10.2 101900 48
2010-10-12 07:39 51°14.492 2°55.032 8.5 5 10.3 101890 48
2010-10-12 07:40 51°14.598 2°54.79 7.7 15 10.4 101900 50
2010-10-12 07:41 51°14.556 2°54.485 0.8 257 10.6 101910 48
2010-10-12 07:42 51°14.407 2°54.209 0.5 23 10.7 101930 48
2010-10-12 07:43 51°14.276 2°53.894 0.7 34 10.7 101930 49
2010-10-12 07:44 51°14.164 2°53.553 2 42 10.8 101930 49
2010-10-12 07:45 51°14.049 2°53.211 0.6 39 10.8 101930 51
2010-10-12 07:46 51°13.931 2°52.87 1.5 19 10.7 101930 47
2010-10-12 07:47 51°13.808 2°52.536 1.9 25 10.7 101930 49
2010-10-12 07:48 51°13.681 2°52.202 2.4 42 10.7 101930 49
2010-10-12 07:49 51°13.551 2°51.861 2.4 18 10.7 101920 50
2010-10-12 07:50 51°13.431 2°51.524 1.7 41 10.8 101920 49
2010-10-12 07:51 51°13.305 2°51.184 2.7 42 10.8 101920 48
2010-10-12 07:52 51°13.185 2°50.849 2.2 45 10.8 101920 48
2010-10-12 07:53 51°13.065 2°50.514 2.9 37 10.8 101920 49
2010-10-12 07:54 51°12.945 2°50.177 2.3 42 10.8 101930 47
2010-10-12 07:55 51°12.825 2°49.846 3.2 42 10.8 101920 48
2010-10-12 07:56 51°12.702 2°49.514 0.2 27 10.9 101920 48
2010-10-12 07:57 51°12.581 2°49.184 1.6 21 10.9 101920 49
2010-10-12 07:58 51°12.458 2°48.843 1.9 26 11 101910 50
2010-10-12 07:59 51°12.336 2°48.52 2.4 27 11.2 101910 50
2010-10-12 08:00 51°12.216 2°48.181 0.8 27 11.2 101920 49
2010-10-12 08:01 51°12.097 2°47.855 1.6 23 11.2 101910 49
2010-10-12 08:02 51°11.973 2°47.518 1.5 23 11.3 101920 49
2010-10-12 08:03 51°11.859 2°47.186 0.7 27 11.4 101920 49
2010-10-12 08:04 51°11.74 2°46.843 0.3 24 11.4 101910 49
2010-10-12 08:05 51°11.623 2°46.515 2.5 23 11.4 101920 51
2010-10-12 08:06 51°11.501 2°46.177 0.3 27 11.4 101910 49
2010-10-12 08:07 51°11.387 2°45.847 2 22 11.4 101910 48
2010-10-12 08:08 51°11.272 2°45.511 1.4 31 11.4 101910 51
2010-10-12 08:09 51°11.155 2°45.175 2.9 38 11.4 101900 48
2010-10-12 08:10 51°11.034 2°44.846 4.1 42 11.4 101900 48
2010-10-12 08:11 51°10.921 2°44.515 2.8 28 11.4 101910 48
2010-10-12 08:12 51°10.806 2°44.191 1.5 25 11.2 101910 48
2010-10-12 08:13 51°10.711 2°43.853 3.1 22 11.3 101900 49
2010-10-12 08:14 51°10.626 2°43.504 3.7 30 11.4 101900 49
2010-10-12 08:15 51°10.542 2°43.156 2.2 35 11.4 101900 47
2010-10-12 08:16 51°10.447 2°42.811 3.4 40 11.5 101900 51
2010-10-12 08:17 51°10.372 2°42.47 3.5 37 11.4 101900 48
2010-10-12 08:18 51°10.304 2°42.11 3.5 22 11.4 101900 49
2010-10-12 08:19 51°10.234 2°41.762 2.9 33 11.4 101900 51
2010-10-12 08:20 51°10.165 2°41.398 3.6 28 11.4 101900 49
2010-10-12 08:21 51°10.086 2°41.051 3.6 23 11.5 101900 49
2010-10-12 08:22 51°10.014 2°40.685 3.2 23 11.5 101900 50
2010-10-12 08:23 51°9.944 2°40.333 3.3 26 11.5 101900 47
2010-10-12 08:24 51°9.87 2°39.971 1.8 35 11.5 101900 49
2010-10-12 08:25 51°9.8 2°39.62 2.8 38 11.5 101890 49
2010-10-12 08:26 51°9.726 2°39.263 2.9 34 11.6 101890 51
2010-10-12 08:27 51°9.654 2°38.896 4.3 33 11.7 101890 50
2010-10-12 08:28 51°9.586 2°38.544 3.7 38 11.6 101890 49
2010-10-12 08:29 51°9.503 2°38.185 2.9 33 11.5 101900 47
2010-10-12 08:30 51°9.412 2°37.844 2.9 26 11.6 101900 49
2010-10-12 08:31 51°9.315 2°37.498 3.5 36 11.8 101890 50
2010-10-12 08:32 51°9.237 2°37.152 2.4 27 11.8 101890 49
2010-10-12 08:33 51°9.156 2°36.797 4.6 27 11.8 101900 48
2010-10-12 08:34 51°9.095 2°36.537 6 23 11.8 101900 48
2010-10-12 08:35 51°9.075 2°36.343 8.5 18 11.7 101890 50
2010-10-12 08:36 51°9.124 2°36.246 8.8 360 11.9 101880 49
2010-10-12 08:37 51°9.235 2°36.134 9.9 355 11.9 101860 50
2010-10-12 08:38 51°9.293 2°36.095 10.4 342 11.7 101870 49
2010-10-12 08:39 51°9.315 2°36.093 9.5 333 11.6 101870 46
2010-10-12 08:40 51°9.319 2°36.082 9.3 330 11.7 101870 47
2010-10-12 08:41 51°9.314 2°36.067 8.7 333 11.7 101880 47
2010-10-12 08:42 51°9.315 2°36.056 9.4 331 11.8 101880 48
2010-10-12 08:43 51°9.318 2°36.046 11.1 332 11.8 101860 49
2010-10-12 08:44 51°9.318 2°36.042 9 331 11.7 101870 46
2010-10-12 08:45 51°9.324 2°36.039 10.2 332 11.8 101880 48
2010-10-12 08:46 51°9.331 2°36.04 9.1 329 11.8 101860 48
2010-10-12 08:47 51°9.336 2°36.043 9.2 330 11.7 101870 47
2010-10-12 08:48 51°9.342 2°36.042 8.7 330 11.9 101870 49
2010-10-12 08:49 51°9.351 2°36.041 8.7 330 11.9 101870 46
2010-10-12 08:50 51°9.36 2°36.039 9.5 334 12 101870 47
2010-10-12 08:51 51°9.365 2°36.038 8.9 331 12 101870 47
2010-10-12 08:52 51°9.367 2°36.037 9.8 332 12 101880 48
2010-10-12 08:53 51°9.371 2°36.029 8.4 336 11.9 101880 47
2010-10-12 08:54 51°9.377 2°36.012 8.9 341 11.8 101880 49
2010-10-12 08:55 51°9.383 2°35.994 8.1 334 11.9 101880 49
2010-10-12 08:56 51°9.387 2°35.978 9.1 329 12 101890 47
2010-10-12 08:57 51°9.388 2°35.981 7.7 323 12 101880 47
2010-10-12 08:58 51°9.389 2°35.991 9.5 326 12 101870 48
2010-10-12 08:59 51°9.394 2°35.998 8.9 332 12 101880 48
2010-10-12 09:00 51°9.407 2°35.998 10.4 337 12 101880 47
2010-10-12 09:01 51°9.427 2°35.986 10 338 12 101890 46
2010-10-12 09:02 51°9.432 2°36.033 10.1 22 12 101870 47
2010-10-12 09:03 51°9.416 2°36.243 12.7 319 11.9 101850 46
2010-10-12 09:04 51°9.425 2°36.503 13.5 316 12 101870 47
2010-10-12 09:05 51°9.426 2°36.784 14.5 315 12.1 101850 46
2010-10-12 09:06 51°9.414 2°37.063 14.4 317 12.1 101850 48
2010-10-12 09:07 51°9.406 2°37.321 11.8 316 12 101850 46
2010-10-12 09:08 51°9.418 2°37.436 11 326 12 101880 46
2010-10-12 09:09 51°9.446 2°37.487 10.7 334 12 101880 47
2010-10-12 09:10 51°9.462 2°37.498 8.7 338 11.9 101880 46
2010-10-12 09:11 51°9.468 2°37.488 7.8 334 11.9 101880 48
2010-10-12 09:12 51°9.468 2°37.478 8.7 325 11.9 101880 47
2010-10-12 09:13 51°9.463 2°37.471 8.9 321 12.1 101880 50
2010-10-12 09:14 51°9.454 2°37.462 7.9 328 12 101880 47
2010-10-12 09:15 51°9.446 2°37.455 9 325 12.1 101890 48
2010-10-12 09:16 51°9.441 2°37.45 10.3 333 12 101880 48
2010-10-12 09:17 51°9.439 2°37.443 8.2 333 11.9 101880 47
2010-10-12 09:18 51°9.438 2°37.438 9.6 332 11.8 101880 47
2010-10-12 09:19 51°9.435 2°37.433 10.1 329 11.8 101880 47
2010-10-12 09:20 51°9.431 2°37.43 9 326 11.8 101880 48
2010-10-12 09:21 51°9.425 2°37.428 9.9 326 11.8 101880 47
2010-10-12 09:22 51°9.421 2°37.428 9.1 326 11.8 101880 47
2010-10-12 09:23 51°9.419 2°37.427 8.5 329 12 101880 47
2010-10-12 09:24 51°9.414 2°37.426 8.1 325 11.9 101880 48
2010-10-12 09:25 51°9.411 2°37.427 9 328 11.9 101880 48
2010-10-12 09:26 51°9.411 2°37.428 9.1 334 12 101890 49
2010-10-12 09:27 51°9.411 2°37.428 8.9 326 12 101880 47
2010-10-12 09:28 51°9.407 2°37.428 10.5 327 12 101890 47
2010-10-12 09:29 51°9.404 2°37.429 8.7 329 12.1 101890 48
2010-10-12 09:30 51°9.404 2°37.431 9.8 333 12 101880 49
2010-10-12 09:31 51°9.405 2°37.434 9.8 331 12 101880 47
2010-10-12 09:32 51°9.406 2°37.439 9.5 329 11.9 101880 46
2010-10-12 09:33 51°9.407 2°37.443 7.6 327 11.9 101880 48
2010-10-12 09:34 51°9.406 2°37.446 9.6 327 12 101880 47
2010-10-12 09:35 51°9.405 2°37.449 10 327 12 101880 49
2010-10-12 09:36 51°9.402 2°37.453 9.6 328 11.9 101880 46
2010-10-12 09:37 51°9.4 2°37.455 10.3 329 11.9 101880 48
2010-10-12 09:38 51°9.4 2°37.454 9.3 331 11.8 101880 47
2010-10-12 09:39 51°9.4 2°37.453 7.7 333 11.9 101880 48
2010-10-12 09:40 51°9.402 2°37.455 9.1 327 11.9 101880 48
2010-10-12 09:41 51°9.403 2°37.459 8.7 333 12.1 101890 48
2010-10-12 09:42 51°9.405 2°37.463 9.3 334 12.1 101880 48
2010-10-12 09:43 51°9.409 2°37.464 9 332 12.1 101880 49
2010-10-12 09:44 51°9.411 2°37.467 8 328 12 101880 49
2010-10-12 09:45 51°9.414 2°37.468 10.4 334 12 101890 47
2010-10-12 09:46 51°9.419 2°37.464 8.4 332 12 101880 49
2010-10-12 09:47 51°9.424 2°37.457 10.1 335 12 101880 47
2010-10-12 09:48 51°9.429 2°37.449 9.4 334 12 101870 48
2010-10-12 09:49 51°9.432 2°37.445 7.9 328 12.1 101880 48
2010-10-12 09:50 51°9.432 2°37.451 9.1 327 12.2 101880 47
2010-10-12 09:51 51°9.429 2°37.458 9.8 327 12.1 101870 48
2010-10-12 09:52 51°9.428 2°37.461 10.2 330 12.1 101870 48
2010-10-12 09:53 51°9.428 2°37.458 8.4 331 12.1 101870 47
2010-10-12 09:54 51°9.429 2°37.453 8.3 334 12 101870 47
2010-10-12 09:55 51°9.427 2°37.452 8.1 324 12.1 101870 49
2010-10-12 09:56 51°9.422 2°37.455 4.4 326 12 101870 49
2010-10-12 09:57 51°9.417 2°37.457 8 329 12.1 101870 48
2010-10-12 09:58 51°9.412 2°37.456 8.8 331 12 101880 49
2010-10-12 09:59 51°9.409 2°37.452 8.7 334 11.9 101880 46
2010-10-12 10:00 51°9.409 2°37.445 9.1 342 11.9 101870 46
2010-10-12 10:01 51°9.414 2°37.432 7.9 342 12 101880 49
2010-10-12 10:02 51°9.418 2°37.419 9 332 12 101870 49
2010-10-12 10:03 51°9.414 2°37.413 8.9 319 12.1 101880 49
2010-10-12 10:04 51°9.403 2°37.415 10.1 323 12.1 101870 48
2010-10-12 10:05 51°9.392 2°37.414 8.2 325 12.1 101870 49
2010-10-12 10:06 51°9.386 2°37.409 9.3 331 12.1 101880 47
2010-10-12 10:07 51°9.38 2°37.404 10 332 12 101890 45
2010-10-12 10:08 51°9.375 2°37.4 8.3 330 12 101880 48
2010-10-12 10:09 51°9.37 2°37.398 9 325 12 101880 47
2010-10-12 10:10 51°9.363 2°37.397 8.3 327 12.1 101880 49
2010-10-12 10:11 51°9.359 2°37.395 9.1 333 12.1 101890 47
2010-10-12 10:12 51°9.356 2°37.394 9.6 330 12.1 101880 48
2010-10-12 10:13 51°9.353 2°37.395 9.1 330 12.1 101880 47
2010-10-12 10:14 51°9.348 2°37.394 7.7 329 12.2 101880 48
2010-10-12 10:15 51°9.344 2°37.394 9.8 327 12.1 101880 47
2010-10-12 10:16 51°9.337 2°37.393 9.1 328 12 101880 47
2010-10-12 10:17 51°9.33 2°37.396 10.3 327 12.1 101890 49
2010-10-12 10:18 51°9.322 2°37.395 8.5 328 12 101890 46
2010-10-12 10:19 51°9.319 2°37.395 7.8 330 12.2 101900 47
2010-10-12 10:20 51°9.316 2°37.396 7.1 327 12.2 101890 49
2010-10-12 10:21 51°9.312 2°37.401 9.2 326 12.3 101890 48
2010-10-12 10:22 51°9.306 2°37.404 9.3 327 12.1 101890 47
2010-10-12 10:23 51°9.302 2°37.406 8.8 332 12.1 101900 47
2010-10-12 10:24 51°9.3 2°37.41 9.4 321 12.2 101890 47
2010-10-12 10:25 51°9.293 2°37.411 9.8 330 12.1 101890 47
2010-10-12 10:26 51°9.285 2°37.412 9.5 326 12.2 101890 47
2010-10-12 10:27 51°9.279 2°37.412 10.2 327 12.3 101890 49
2010-10-12 10:28 51°9.273 2°37.412 9 330 12.2 101890 49
2010-10-12 10:29 51°9.269 2°37.41 10.2 337 12.1 101880 47
2010-10-12 10:30 51°9.265 2°37.405 9.3 334 12.2 101880 49
2010-10-12 10:31 51°9.263 2°37.399 9.4 336 12.2 101890 46
2010-10-12 10:32 51°9.261 2°37.391 9.2 334 12.1 101890 48
2010-10-12 10:33 51°9.259 2°37.387 7.3 327 12.2 101890 47
2010-10-12 10:34 51°9.258 2°37.387 8.1 333 12.2 101890 49
2010-10-12 10:35 51°9.259 2°37.384 7.9 331 12.1 101880 47
2010-10-12 10:36 51°9.26 2°37.379 9.6 338 12.2 101880 48
2010-10-12 10:37 51°9.263 2°37.375 8.6 341 12 101880 47
2010-10-12 10:38 51°9.267 2°37.368 10.4 336 12.1 101890 47
2010-10-12 10:39 51°9.269 2°37.36 9.7 339 12 101880 46
2010-10-12 10:40 51°9.275 2°37.348 8.7 343 12 101880 47
2010-10-12 10:41 51°9.281 2°37.329 9.9 342 11.9 101870 46
2010-10-12 10:42 51°9.287 2°37.31 9.4 340 11.9 101870 48
2010-10-12 10:43 51°9.289 2°37.295 8.4 337 11.9 101890 49
2010-10-12 10:44 51°9.289 2°37.289 6.8 330 11.9 101880 47
2010-10-12 10:45 51°9.286 2°37.29 8.1 326 12.1 101870 47
2010-10-12 10:46 51°9.278 2°37.293 8.2 327 12.1 101870 48
2010-10-12 10:47 51°9.273 2°37.296 7.8 329 12.2 101870 46
2010-10-12 10:48 51°9.267 2°37.294 9.4 333 12.1 101870 48
2010-10-12 10:49 51°9.264 2°37.288 10 334 12.1 101870 47
2010-10-12 10:50 51°9.263 2°37.281 7.3 330 12 101880 48
2010-10-12 10:51 51°9.26 2°37.276 9.5 328 12 101880 47
2010-10-12 10:52 51°9.255 2°37.274 8.9 321 12 101880 49
2010-10-12 10:53 51°9.249 2°37.277 9.9 324 12.1 101870 47
2010-10-12 10:54 51°9.245 2°37.279 8.7 332 12.2 101870 49
2010-10-12 10:55 51°9.241 2°37.279 9.7 331 12.2 101870 46
2010-10-12 10:56 51°9.237 2°37.279 9.9 330 12.1 101880 47
2010-10-12 10:57 51°9.234 2°37.278 9 326 12.1 101880 48
2010-10-12 10:58 51°9.23 2°37.278 7.7 328 12 101860 48
2010-10-12 10:59 51°9.225 2°37.28 9.8 322 12.1 101860 48
2010-10-12 11:00 51°9.218 2°37.281 8.1 319 12.2 101860 49
2010-10-12 11:01 51°9.213 2°37.285 9.8 325 12.2 101860 46
2010-10-12 11:02 51°9.208 2°37.285 8.8 323 12.2 101870 49
2010-10-12 11:03 51°9.205 2°37.286 9 327 12.2 101860 46
2010-10-12 11:04 51°9.21 2°37.289 9.4 338 12.2 101880 47
2010-10-12 11:05 51°9.269 2°37.28 11.1 350 12.2 101870 48
2010-10-12 11:06 51°9.357 2°37.194 7.7 3 12.1 101850 47
2010-10-12 11:07 51°9.451 2°37.009 9.4 7 12.1 101850 48
2010-10-12 11:08 51°9.479 2°36.723 6 28 12 101880 47
2010-10-12 11:09 51°9.436 2°36.398 4.9 25 12.1 101900 48
2010-10-12 11:10 51°9.382 2°36.056 5.2 33 12.2 101890 47
2010-10-12 11:11 51°9.331 2°35.717 4.4 35 12.2 101890 48
2010-10-12 11:12 51°9.282 2°35.383 5.5 35 12.2 101900 47
2010-10-12 11:13 51°9.259 2°35.165 7.1 25 12.3 101890 50
2010-10-12 11:14 51°9.283 2°35.055 9 2 12.4 101870 50
2010-10-12 11:15 51°9.335 2°35.023 8.4 346 12.4 101860 50
2010-10-12 11:16 51°9.407 2°35.033 11.8 339 12.4 101870 47
2010-10-12 11:17 51°9.464 2°35.069 9.5 331 12.3 101860 47
2010-10-12 11:18 51°9.498 2°35.123 10.8 329 12.4 101890 47
2010-10-12 11:19 51°9.522 2°35.195 10.1 320 12.3 101860 45
2010-10-12 11:20 51°9.526 2°35.281 9.5 23 12.4 101870 46
2010-10-12 11:21 51°9.519 2°35.376 10.4 24 12.3 101870 45
2010-10-12 11:22 51°9.505 2°35.465 10.2 22 12.3 101860 45
2010-10-12 11:23 51°9.495 2°35.545 9.8 22 12.3 101870 46
2010-10-12 11:24 51°9.493 2°35.622 8.8 316 12.3 101870 46
2010-10-12 11:25 51°9.493 2°35.699 10.8 318 12.4 101870 48
2010-10-12 11:26 51°9.491 2°35.777 10.3 315 12.4 101870 46
2010-10-12 11:27 51°9.486 2°35.854 9.9 315 12.4 101870 46
2010-10-12 11:28 51°9.481 2°35.93 8.8 22 12.4 101880 46
2010-10-12 11:29 51°9.478 2°36.008 11.2 317 12.4 101870 46
2010-10-12 11:30 51°9.475 2°36.086 12.2 26 12.5 101870 47
2010-10-12 11:31 51°9.471 2°36.163 9 315 12.4 101850 46
2010-10-12 11:32 51°9.466 2°36.237 10.3 25 12.4 101850 47
2010-10-12 11:33 51°9.478 2°36.313 10.8 325 12.4 101850 47
2010-10-12 11:34 51°9.514 2°36.383 9.3 326 12.5 101860 47
2010-10-12 11:35 51°9.555 2°36.459 10.8 326 12.5 101860 46
2010-10-12 11:36 51°9.593 2°36.531 11.6 327 12.5 101860 47
2010-10-12 11:37 51°9.624 2°36.599 10.6 327 12.4 101870 47
2010-10-12 11:38 51°9.655 2°36.666 10.2 329 12.4 101860 47
2010-10-12 11:39 51°9.686 2°36.737 10.7 329 12.4 101870 47
2010-10-12 11:40 51°9.714 2°36.81 10.7 331 12.4 101860 46
2010-10-12 11:41 51°9.732 2°36.889 10.9 324 12.4 101860 48
2010-10-12 11:42 51°9.733 2°36.977 9.5 28 12.4 101860 48
2010-10-12 11:43 51°9.695 2°37.062 9.9 23 12.4 101850 47
2010-10-12 11:44 51°9.63 2°37.107 8.8 260 12.5 101850 48
2010-10-12 11:45 51°9.573 2°37.113 8.9 261 12.6 101870 46
2010-10-12 11:46 51°9.532 2°37.108 9.6 256 12.6 101870 46
2010-10-12 11:47 51°9.502 2°37.097 6.9 252 12.7 101870 47
2010-10-12 11:48 51°9.477 2°37.079 10.4 253 12.8 101860 46
2010-10-12 11:49 51°9.456 2°37.056 10.1 251 12.8 101850 46
2010-10-12 11:50 51°9.434 2°37.031 8.5 253 12.8 101860 46
2010-10-12 11:51 51°9.414 2°37.005 9 250 12.9 101860 48
2010-10-12 11:52 51°9.392 2°36.978 9.9 251 12.9 101860 47
2010-10-12 11:53 51°9.37 2°36.948 10.4 255 12.8 101850 46
2010-10-12 11:54 51°9.343 2°36.928 6.9 261 12.9 101860 47
2010-10-12 11:55 51°9.276 2°36.908 6 19 12.7 101870 46
2010-10-12 11:56 51°9.228 2°36.805 7.7 23 12.6 101880 45
2010-10-12 11:57 51°9.201 2°36.696 8.1 35 12.4 101880 47
2010-10-12 11:58 51°9.197 2°36.585 8 31 12.4 101870 46
2010-10-12 11:59 51°9.202 2°36.476 8.2 25 12.4 101870 48
2010-10-12 12:00 51°9.211 2°36.373 7.9 22 12.4 101870 48
2010-10-12 12:01 51°9.219 2°36.275 9 27 12.5 101870 48
2010-10-12 12:02 51°9.221 2°36.188 8.1 29 12.5 101890 48
2010-10-12 12:03 51°9.221 2°36.099 7.5 24 12.4 101880 48
2010-10-12 12:04 51°9.221 2°36.005 6.7 25 12.4 101880 48
2010-10-12 12:05 51°9.221 2°35.908 6.5 27 12.4 101870 47
2010-10-12 12:06 51°9.219 2°35.81 7.7 27 12.4 101870 47
2010-10-12 12:07 51°9.22 2°35.714 6.5 28 12.3 101870 48
2010-10-12 12:08 51°9.218 2°35.62 7.9 27 12.5 101870 47
2010-10-12 12:09 51°9.219 2°35.527 6.4 25 12.5 101870 47
2010-10-12 12:10 51°9.224 2°35.436 8.1 21 12.5 101870 48
2010-10-12 12:11 51°9.226 2°35.348 8.3 20 12.5 101860 49
2010-10-12 12:12 51°9.229 2°35.264 7.3 21 12.5 101860 47
2010-10-12 12:13 51°9.234 2°35.177 8.2 24 12.5 101870 47
2010-10-12 12:14 51°9.238 2°35.09 8.7 25 12.6 101880 48
2010-10-12 12:15 51°9.241 2°35.001 10 26 12.7 101870 50
2010-10-12 12:16 51°9.245 2°34.915 8.1 23 12.5 101880 47
2010-10-12 12:17 51°9.253 2°34.837 8.3 19 12.5 101880 48
2010-10-12 12:18 51°9.264 2°34.763 8.5 18 12.5 101870 47
2010-10-12 12:19 51°9.278 2°34.695 7.6 9 12.5 101850 47
2010-10-12 12:20 51°9.293 2°34.627 11.1 14 12.5 101860 47
2010-10-12 12:21 51°9.307 2°34.567 9.9 8 12.5 101860 48
2010-10-12 12:22 51°9.313 2°34.521 11.9 9 12.4 101860 47
2010-10-12 12:23 51°9.309 2°34.487 10.2 9 12.5 101850 47
2010-10-12 12:24 51°9.297 2°34.458 9.2 11 12.5 101860 46
2010-10-12 12:25 51°9.282 2°34.436 7.9 20 12.5 101860 47
2010-10-12 12:26 51°9.263 2°34.416 8 23 12.6 101870 48
2010-10-12 12:27 51°9.264 2°34.372 8.6 360 12.7 101850 48
2010-10-12 12:28 51°9.322 2°34.389 10.9 330 12.7 101850 48
2010-10-12 12:29 51°9.392 2°34.588 14.6 323 12.7 101820 48
2010-10-12 12:30 51°9.456 2°34.891 16.1 323 12.8 101810 48
2010-10-12 12:31 51°9.505 2°35.214 14.1 319 12.8 101810 46
2010-10-12 12:32 51°9.555 2°35.537 12.7 317 12.9 101820 48
2010-10-12 12:33 51°9.604 2°35.859 14.5 320 13 101830 49
2010-10-12 12:34 51°9.643 2°36.175 15.9 320 13 101810 47
2010-10-12 12:35 51°9.681 2°36.489 13.5 324 13 101810 48
2010-10-12 12:36 51°9.72 2°36.82 13.9 322 12.9 101810 46
2010-10-12 12:37 51°9.76 2°37.138 13.9 321 12.9 101810 46
2010-10-12 12:38 51°9.8 2°37.452 14.7 317 12.9 101810 46
2010-10-12 12:39 51°9.838 2°37.766 14.5 321 12.9 101810 45
2010-10-12 12:40 51°9.877 2°38.083 15.8 317 12.9 101810 47
2010-10-12 12:41 51°9.917 2°38.404 14.9 320 12.9 101810 46
2010-10-12 12:42 51°9.96 2°38.726 14 320 12.9 101810 46
2010-10-12 12:43 51°10.002 2°39.045 14.1 318 12.9 101800 48
2010-10-12 12:44 51°10.044 2°39.378 16.3 319 12.9 101810 46
2010-10-12 12:45 51°10.086 2°39.704 14.2 319 12.9 101790 47
2010-10-12 12:46 51°10.128 2°40.032 15.2 320 12.9 101810 47
2010-10-12 12:47 51°10.18 2°40.355 14.6 320 12.9 101800 46
2010-10-12 12:48 51°10.238 2°40.674 15.9 320 12.9 101810 47
2010-10-12 12:49 51°10.296 2°40.993 14.8 323 12.9 101790 47
2010-10-12 12:50 51°10.354 2°41.308 14.6 315 13 101800 48
2010-10-12 12:51 51°10.41 2°41.618 17.3 318 12.9 101800 46
2010-10-12 12:52 51°10.468 2°41.938 14.6 319 12.9 101810 47
2010-10-12 12:53 51°10.524 2°42.253 15.5 319 12.9 101800 47
2010-10-12 12:54 51°10.583 2°42.567 15.6 324 12.9 101800 47
2010-10-12 12:55 51°10.653 2°42.872 16.4 323 12.9 101800 45
2010-10-12 12:56 51°10.724 2°43.173 14.5 323 12.9 101790 46
2010-10-12 12:57 51°10.796 2°43.484 14 322 12.9 101780 47
2010-10-12 12:58 51°10.876 2°43.782 16.1 323 12.9 101800 47
2010-10-12 12:59 51°11.018 2°44.017 15.7 333 12.9 101800 45
2010-10-12 13:00 51°11.168 2°44.249 16.6 328 12.9 101800 47
2010-10-12 13:01 51°11.273 2°44.536 16.5 321 12.9 101790 46
2010-10-12 13:02 51°11.334 2°44.856 14.9 324 13 101790 48
2010-10-12 13:03 51°11.411 2°45.169 16.6 326 13 101780 45
2010-10-12 13:04 51°11.496 2°45.477 16.7 321 13 101780 47
2010-10-12 13:05 51°11.583 2°45.786 15.2 324 13 101780 46
2010-10-12 13:06 51°11.668 2°46.092 15.9 324 13 101780 48
2010-10-12 13:07 51°11.758 2°46.407 14.8 322 13 101780 47
2010-10-12 13:08 51°11.847 2°46.718 16 320 13.1 101780 47
2010-10-12 13:09 51°11.935 2°47.028 16.5 323 13 101770 47
2010-10-12 13:10 51°12.021 2°47.339 13.3 321 13 101780 46
2010-10-12 13:11 51°12.109 2°47.653 15 324 13 101750 46
2010-10-12 13:12 51°12.199 2°47.965 14.3 323 13 101780 46
2010-10-12 13:13 51°12.286 2°48.272 15 322 13.1 101780 47
2010-10-12 13:14 51°12.378 2°48.589 16.4 323 13.1 101790 48
2010-10-12 13:15 51°12.469 2°48.901 14.7 324 13.1 101790 46
2010-10-12 13:16 51°12.569 2°49.204 14.8 327 13 101780 46
2010-10-12 13:17 51°12.669 2°49.502 14.2 325 13 101790 46
2010-10-12 13:18 51°12.774 2°49.812 14.4 326 12.9 101780 46
2010-10-12 13:19 51°12.878 2°50.118 15.9 327 13 101780 46
2010-10-12 13:20 51°12.987 2°50.421 14.9 324 13 101780 47
2010-10-12 13:21 51°13.095 2°50.729 14.6 328 13.1 101790 48
2010-10-12 13:22 51°13.204 2°51.036 15.4 325 13 101760 46
2010-10-12 13:23 51°13.313 2°51.344 14.3 326 12.9 101770 46
2010-10-12 13:24 51°13.422 2°51.654 15.7 327 13 101780 47
2010-10-12 13:25 51°13.538 2°51.957 14.2 328 13 101780 47
2010-10-12 13:26 51°13.658 2°52.256 15.5 328 13 101780 47
2010-10-12 13:27 51°13.776 2°52.552 16.2 328 13 101780 46
2010-10-12 13:28 51°13.897 2°52.846 15 327 13 101780 46
2010-10-12 13:29 51°14.019 2°53.139 15.7 327 13 101780 47
2010-10-12 13:30 51°14.143 2°53.435 13.9 329 13.1 101780 46
2010-10-12 13:31 51°14.268 2°53.731 16.5 328 13.1 101770 47
2010-10-12 13:32 51°14.393 2°54.029 15 326 13.2 101770 47
2010-10-12 13:33 51°14.517 2°54.326 15.3 322 13.1 101770 46
2010-10-12 13:34 51°14.643 2°54.625 14.5 327 13.1 101770 46
2010-10-12 13:35 51°14.766 2°54.921 14.2 326 13.1 101770 46
2010-10-12 13:36 51°14.888 2°55.232 15.6 326 13.1 101770 46
2010-10-12 13:37 51°14.969 2°55.569 15.8 318 13 101750 45
2010-10-12 13:38 51°14.983 2°55.872 13.3 25 13 101760 46
2010-10-12 13:39 51°14.971 2°56.077 11.8 23 12.9 101760 46
2010-10-12 13:40 51°14.954 2°56.274 12.4 21 13 101760 46
2010-10-12 13:41 51°14.975 2°56.479 12.2 320 12.8 101770 44
2010-10-12 13:42 51°15.039 2°56.67 10.9 325 12.9 101770 46
2010-10-12 13:43 51°15.11 2°56.865 12.7 326 13.1 101780 46
2010-10-12 13:44 51°15.197 2°57.055 13 333 13 101780 46
2010-10-12 13:45 51°15.316 2°57.099 11.9 14 12.9 101770 46
2010-10-12 13:46 51°15.322 2°56.893 5.1 35 12.9 101810 49
2010-10-12 13:47 51°15.26 2°56.602 6.8 32 12.9 101810 48
2010-10-12 13:48 51°15.197 2°56.302 4.7 35 12.8 101810 48
2010-10-12 13:49 51°15.135 2°56 3.8 30 12.8 101810 47
2010-10-12 13:50 51°15.072 2°55.704 4.4 43 12.8 101810 46
2010-10-12 13:51 51°15.008 2°55.408 3.9 21 12.8 101810 46
2010-10-12 13:52 51°14.918 2°55.134 1.5 24 12.9 101810 49
2010-10-12 13:53 51°14.741 2°54.987 5.2 269 13 101810 47
2010-10-12 13:54 51°14.545 2°55.02 9.4 249 13 101810 48
2010-10-12 13:55 51°14.363 2°55.185 10.1 245 13.2 101800 48
2010-10-12 13:56 51°14.221 2°55.329 9.9 249 13.2 101800 47
2010-10-12 13:57 51°14.083 2°55.437 8.6 261 13.1 101810 45
2010-10-12 13:58 51°13.962 2°55.525 5.8 252 13.1 101810 48
2010-10-12 13:59 51°13.849 2°55.606 6.8 261 13.1 101830 45
2010-10-12 14:00 51°13.764 2°55.701 9.9 259 13 101810 45
2010-10-12 14:01 51°13.706 2°55.816 6.3 23 13 101800 44
2010-10-12 14:02 51°13.672 2°55.916 7.6 27 13.1 101810 44
2010-10-12 14:03 51°13.662 2°55.956 3.3 257 13.1 101820 44
2010-10-12 14:04 51°13.661 2°55.959 4.1 258 13 101800 46
2010-10-13 07:34 51°13.661 2°55.959 -999 282 11 101870 43
2010-10-13 07:35 51°13.662 2°55.96 -999 282 11 101870 43
2010-10-13 07:36 51°13.662 2°55.961 -999 282 11 101870 43
2010-10-13 07:37 51°13.662 2°55.96 -999 282 11 101860 43
2010-10-13 07:38 51°13.663 2°55.96 -999 282 11.1 101870 43
2010-10-13 07:39 51°13.663 2°55.961 -999 282 11.1 101870 42
2010-10-13 07:40 51°13.663 2°55.961 0.1 287 11.1 101870 43
2010-10-13 07:41 51°13.663 2°55.961 0.9 283 11 101870 43
2010-10-13 07:42 51°13.662 2°55.96 -999 282 11 101870 43
2010-10-13 07:43 51°13.662 2°55.96 -999 282 11 101870 43
2010-10-13 07:44 51°13.661 2°55.959 -999 282 11.1 101880 43
2010-10-13 07:45 51°13.661 2°55.959 -999 282 11.1 101880 43
2010-10-13 07:46 51°13.661 2°55.959 -999 282 11.1 101880 43
2010-10-13 07:47 51°13.661 2°55.959 -999 282 11.1 101880 42
2010-10-13 07:48 51°13.662 2°55.959 -999 282 11.1 101890 43
2010-10-13 07:49 51°13.662 2°55.959 -999 282 11.1 101890 43
2010-10-13 07:50 51°13.662 2°55.96 -999 282 11.1 101890 43
2010-10-13 07:51 51°13.663 2°55.96 1.5 278 11.1 101890 41
2010-10-13 07:52 51°13.663 2°55.96 -999 282 11.1 101890 43
2010-10-13 07:53 51°13.663 2°55.96 -999 282 11.1 101890 43
2010-10-13 07:54 51°13.662 2°55.96 -999 282 11.1 101890 43
2010-10-13 07:55 51°13.664 2°55.96 -999 282 11.1 101890 42
2010-10-13 07:56 51°13.664 2°55.96 -999 282 11.1 101890 43
2010-10-13 07:57 51°13.663 2°55.96 -999 282 11.1 101890 43
2010-10-13 07:58 51°13.663 2°55.96 0.2 282 11.1 101890 43
2010-10-13 07:59 51°13.663 2°55.96 -999 282 11.1 101890 43
2010-10-13 08:00 51°13.664 2°55.961 1.5 285 11.1 101890 45
2010-10-13 08:01 51°13.663 2°55.961 -999 282 11.1 101890 43
2010-10-13 08:02 51°13.662 2°55.96 -999 282 11.1 101890 43
2010-10-13 08:03 51°13.662 2°55.96 -999 282 11.1 101900 42
2010-10-13 08:04 51°13.662 2°55.961 -999 282 11.1 101900 43
2010-10-13 08:05 51°13.662 2°55.961 -999 23 11.1 101900 43
2010-10-13 08:06 51°13.662 2°55.961 -999 282 11.2 101900 43
2010-10-13 08:07 51°13.662 2°55.961 -999 282 11.2 101900 43
2010-10-13 08:08 51°13.662 2°55.962 0.1 282 11.1 101900 43
2010-10-13 08:09 51°13.663 2°55.962 0.3 282 11.2 101900 43
2010-10-13 08:10 51°13.663 2°55.962 -999 282 11.2 101900 43
2010-10-13 08:11 51°13.663 2°55.962 -999 282 11.2 101900 42
2010-10-13 08:12 51°13.664 2°55.962 -999 282 11.2 101900 43
2010-10-13 08:13 51°13.665 2°55.962 -999 282 11.2 101900 43
2010-10-13 08:14 51°13.665 2°55.962 -999 282 11.2 101900 43
2010-10-13 08:15 51°13.664 2°55.962 -999 282 11.2 101910 43
2010-10-13 08:16 51°13.664 2°55.962 -999 282 11.2 101910 43
2010-10-13 08:17 51°13.664 2°55.961 -999 282 11.2 101910 43
2010-10-13 08:18 51°13.664 2°55.961 -999 282 11.3 101910 43
2010-10-13 08:19 51°13.664 2°55.961 -999 282 11.3 101910 42
2010-10-13 08:20 51°13.664 2°55.961 -999 282 11.3 101910 43
2010-10-13 08:21 51°13.664 2°55.961 -999 282 11.3 101910 43
2010-10-13 08:22 51°13.664 2°55.961 -999 282 11.3 101910 43
2010-10-13 08:23 51°13.664 2°55.962 -999 282 11.3 101910 43
2010-10-13 08:24 51°13.664 2°55.962 -999 282 11.4 101910 43
2010-10-13 08:25 51°13.663 2°55.962 -999 282 11.4 101910 43
2010-10-13 08:26 51°13.663 2°55.962 -999 282 11.4 101910 43
2010-10-13 08:27 51°13.664 2°55.96 -999 282 11.4 101910 42
2010-10-13 08:28 51°13.663 2°55.96 -999 23 11.4 101910 43
2010-10-13 08:29 51°13.662 2°55.96 -999 282 11.4 101910 43
2010-10-13 08:30 51°13.661 2°55.96 -999 23 11.4 101910 43
2010-10-13 08:31 51°13.662 2°55.96 -999 282 11.4 101910 43
2010-10-13 08:32 51°13.662 2°55.959 -999 318 11.4 101910 43
2010-10-13 08:33 51°13.663 2°55.959 -999 282 11.4 101910 43
2010-10-13 08:34 51°13.663 2°55.959 -999 326 11.4 101910 43
2010-10-13 08:35 51°13.663 2°55.96 -999 23 11.4 101910 42
2010-10-13 08:36 51°13.662 2°55.96 -999 315 11.4 101910 43
2010-10-13 08:37 51°13.663 2°55.96 -999 23 11.4 101910 43
2010-10-13 08:38 51°13.663 2°55.96 -999 282 11.4 101910 43
2010-10-13 08:39 51°13.663 2°55.96 -999 282 11.4 101910 43
2010-10-13 08:40 51°13.663 2°55.96 -999 282 11.4 101910 43
2010-10-13 08:41 51°13.663 2°55.961 -999 319 11.4 101910 43
2010-10-13 08:42 51°13.663 2°55.96 -999 282 11.4 101910 43
2010-10-13 08:43 51°13.663 2°55.959 -999 282 11.5 101910 42
2010-10-13 08:44 51°13.663 2°55.958 -999 319 11.6 101910 43
2010-10-13 08:45 51°13.663 2°55.958 -999 282 11.6 101910 43
2010-10-13 08:46 51°13.663 2°55.958 -999 24 11.6 101910 43
2010-10-13 08:47 51°13.663 2°55.959 -999 282 11.6 101920 43
2010-10-13 08:48 51°13.663 2°55.959 -999 23 11.6 101910 43
2010-10-13 08:49 51°13.663 2°55.96 -999 282 11.6 101910 43
2010-10-13 08:50 51°13.663 2°55.959 -999 282 11.6 101910 43
2010-10-13 08:51 51°13.664 2°55.959 -999 282 11.6 101910 43
2010-10-13 08:52 51°13.664 2°55.96 -999 282 11.6 101910 43
2010-10-13 08:53 51°13.663 2°55.96 -999 282 11.6 101910 43
2010-10-13 08:54 51°13.663 2°55.96 -999 282 11.7 101910 44
2010-10-13 08:55 51°13.662 2°55.96 -999 282 11.7 101910 44
2010-10-13 08:56 51°13.662 2°55.96 -999 282 11.7 101910 43
2010-10-13 08:57 51°13.663 2°55.96 -999 282 11.7 101910 43
2010-10-13 08:58 51°13.662 2°55.959 2.1 287 11.7 101910 45
2010-10-13 08:59 51°13.662 2°55.96 0.2 282 11.7 101910 43
2010-10-13 09:00 51°13.662 2°55.959 -999 282 11.6 101910 43
2010-10-13 09:01 51°13.662 2°55.96 -999 282 11.6 101910 43
2010-10-13 09:02 51°13.662 2°55.961 -999 282 11.6 101910 43
2010-10-13 09:03 51°13.662 2°55.96 -999 282 11.7 101920 43
2010-10-13 09:04 51°13.662 2°55.961 -999 282 11.7 101910 43
2010-10-13 09:05 51°13.662 2°55.96 -999 282 11.7 101910 43
2010-10-13 09:06 51°13.662 2°55.96 -999 282 11.7 101910 43
2010-10-13 09:07 51°13.663 2°55.96 -999 282 11.7 101920 43
2010-10-13 09:08 51°13.663 2°55.96 -999 282 11.8 101910 43
2010-10-13 09:09 51°13.663 2°55.96 -999 282 11.8 101910 43
2010-10-13 09:10 51°13.662 2°55.961 -999 282 11.8 101910 43
2010-10-13 09:11 51°13.662 2°55.961 -999 282 11.7 101920 43
2010-10-13 09:12 51°13.662 2°55.96 -999 282 11.7 101910 43
2010-10-13 09:13 51°13.662 2°55.96 -999 282 11.7 101920 43
2010-10-13 09:14 51°13.662 2°55.96 -999 282 11.7 101910 43
2010-10-13 09:15 51°13.662 2°55.96 -999 282 11.7 101920 42
2010-10-13 09:16 51°13.662 2°55.96 -999 282 11.7 101920 43
2010-10-13 09:17 51°13.662 2°55.96 -999 282 11.6 101910 43
2010-10-13 09:18 51°13.662 2°55.961 -999 282 11.7 101920 43
2010-10-13 09:19 51°13.662 2°55.961 -999 282 11.7 101920 43
2010-10-13 09:20 51°13.662 2°55.961 -999 282 11.7 101920 43
2010-10-13 09:21 51°13.663 2°55.961 -999 282 11.7 101920 43
2010-10-13 09:22 51°13.663 2°55.961 -999 282 11.7 101920 43
2010-10-13 09:23 51°13.662 2°55.961 -999 282 11.7 101910 43
2010-10-13 09:24 51°13.662 2°55.962 -999 282 11.7 101910 43
2010-10-13 09:25 51°13.662 2°55.961 0.1 287 11.7 101910 43
2010-10-13 09:26 51°13.662 2°55.961 -999 282 11.7 101910 44
2010-10-13 09:27 51°13.662 2°55.961 -999 282 11.7 101920 43
2010-10-13 09:28 51°13.662 2°55.96 -999 282 11.7 101910 44
2010-10-13 09:29 51°13.662 2°55.956 0.1 282 11.7 101910 44
2010-10-13 09:30 51°13.662 2°55.958 -999 282 11.7 101920 43
2010-10-13 09:31 51°13.662 2°55.959 -999 282 11.7 101910 43
2010-10-13 09:32 51°13.662 2°55.96 -999 282 11.8 101910 44
2010-10-13 09:33 51°13.663 2°55.96 -999 282 11.8 101910 44
2010-10-13 09:34 51°13.665 2°55.957 -999 282 11.8 101910 44
2010-10-13 09:35 51°13.665 2°55.957 -999 282 11.8 101910 44
2010-10-13 09:36 51°13.666 2°55.957 0.1 282 11.8 101910 44
2010-10-13 09:37 51°13.665 2°55.957 -999 282 11.9 101910 44
2010-10-13 09:38 51°13.664 2°55.958 -999 282 11.9 101910 44
2010-10-13 09:39 51°13.664 2°55.957 -999 282 11.9 101910 43
2010-10-13 09:40 51°13.664 2°55.958 -999 282 11.9 101910 44
2010-10-13 09:41 51°13.665 2°55.958 1.5 277 11.9 101910 44
2010-10-13 09:42 51°13.664 2°55.958 -999 282 11.9 101910 44
2010-10-13 09:43 51°13.663 2°55.959 -999 282 11.9 101910 44
2010-10-13 09:44 51°13.664 2°55.959 -999 282 11.8 101910 44
2010-10-13 09:45 51°13.662 2°55.96 -999 282 11.8 101910 44
2010-10-13 09:46 51°13.662 2°55.961 -999 282 11.8 101910 44
2010-10-13 09:47 51°13.662 2°55.96 -999 282 11.9 101910 43
2010-10-13 09:48 51°13.662 2°55.96 -999 282 11.9 101910 44
2010-10-13 09:49 51°13.662 2°55.96 -999 282 11.9 101910 44
2010-10-13 09:50 51°13.663 2°55.959 -999 282 11.9 101910 44
2010-10-13 09:51 51°13.666 2°55.958 -999 282 11.8 101910 43
2010-10-13 09:52 51°13.669 2°55.959 -999 282 11.8 101910 44
2010-10-13 09:53 51°13.666 2°55.958 -999 282 11.8 101910 44
2010-10-13 09:54 51°13.662 2°55.958 -999 282 11.9 101910 44
2010-10-13 09:55 51°13.663 2°55.958 -999 282 11.9 101910 43
2010-10-13 09:56 51°13.664 2°55.959 -999 282 11.9 101910 44
2010-10-13 09:57 51°13.664 2°55.959 -999 282 11.9 101910 44
2010-10-13 09:58 51°13.664 2°55.96 -999 283 11.9 101910 44
2010-10-13 09:59 51°13.662 2°55.959 -999 282 12 101910 44
2010-10-13 10:00 51°13.663 2°55.959 -999 282 12 101910 44
2010-10-13 10:01 51°13.664 2°55.959 -999 282 12 101910 44
2010-10-13 10:02 51°13.665 2°55.959 -999 282 12.1 101900 44
2010-10-13 10:03 51°13.658 2°55.957 -999 282 12.1 101900 43
2010-10-13 10:04 51°13.658 2°55.958 -999 282 12.1 101900 44
2010-10-13 10:05 51°13.658 2°55.958 -999 282 12.1 101900 44
2010-10-13 10:06 51°13.658 2°55.958 -999 282 12 101900 44
2010-10-13 10:07 51°13.658 2°55.958 -999 282 12 101900 44
2010-10-13 10:08 51°13.644 2°55.955 -999 282 12 101900 43
2010-10-13 10:09 51°13.659 2°55.957 -999 282 12 101900 44
2010-10-13 10:10 51°13.658 2°55.958 -999 282 12 101900 43
2010-10-13 10:11 51°13.661 2°55.959 -999 282 11.9 101900 42
2010-10-13 10:12 51°13.661 2°55.959 0.1 282 11.9 101900 43
2010-10-13 10:13 51°13.662 2°55.96 -999 282 11.9 101900 43
2010-10-13 10:14 51°13.66 2°55.962 -999 282 11.9 101900 43
2010-10-13 10:15 51°13.661 2°55.965 -999 282 11.9 101900 43
2010-10-13 10:16 51°13.663 2°55.963 -999 282 12 101900 44
2010-10-13 10:17 51°13.662 2°55.963 -999 282 12 101900 44
2010-10-13 10:18 51°13.662 2°55.963 -999 282 12 101900 44
2010-10-13 10:19 51°13.664 2°55.962 -999 282 12.1 101900 43
2010-10-13 10:20 51°13.658 2°55.967 -999 282 12.1 101900 43
2010-10-13 10:21 51°13.655 2°55.965 -999 282 12.1 101900 44
2010-10-13 10:22 51°13.653 2°55.966 -999 282 12.2 101900 44
2010-10-13 10:23 51°13.652 2°55.969 -999 282 12.3 101900 44
2010-10-13 10:24 51°13.65 2°55.97 -999 282 12.2 101900 44
2010-10-13 10:25 51°13.647 2°55.971 -999 282 12.2 101900 44